Time;durP1;ratioP1;P1;durP2;ratioP2;P2;SDS_P1;SDS_P2;PMS_P1;PMS_P2;Temp;Humidity;BMP_temperature;BMP_pressure;BME280_temperature;BME280_humidity;BME280_pressure;Samples;Min_cycle;Max_cycle;Signal;HPM_P1;HPM_P2
2023/06/19 00:02:18;;;;;;;6.47;5.88;;;26.20;59.50;;;;;;4223840;27;20181;-56
2023/06/19 00:04:59;;;;;;;;;;;26.30;59.60;;;;;;4225554;28;20051;-56
2023/06/19 00:07:40;;;;;;;7.47;6.85;;;26.20;59.40;;;;;;4224846;28;20447;-56
2023/06/19 00:10:21;;;;;;;8.57;6.68;;;26.20;59.30;;;;;;4224397;28;20422;-57
2023/06/19 00:13:04;;;;;;;7.40;6.72;;;26.20;59.40;;;;;;4226341;27;20055;-56
2023/06/19 00:15:44;;;;;;;7.30;6.70;;;26.20;59.40;;;;;;4226437;28;20390;-56
2023/06/19 00:18:25;;;;;;;;;;;26.20;59.40;;;;;;4225213;28;20185;-57
2023/06/19 00:21:07;;;;;;;7.18;6.63;;;26.20;59.40;;;;;;4225294;28;19927;-56
2023/06/19 00:23:48;;;;;;;6.95;6.35;;;26.20;59.30;;;;;;4225321;28;20047;-57
2023/06/19 00:26:29;;;;;;;7.75;7.00;;;26.20;59.30;;;;;;4226062;27;20096;-58
2023/06/19 00:29:11;;;;;;;7.20;6.57;;;26.20;60.10;;;;;;4226543;27;20062;-57
2023/06/19 00:31:52;;;;;;;7.22;6.15;;;26.20;59.30;;;;;;4226046;27;20054;-57
2023/06/19 00:34:34;;;;;;;6.90;5.95;;;26.20;59.30;;;;;;4226081;28;20080;-57
2023/06/19 00:37:14;;;;;;;6.55;6.05;;;26.20;59.20;;;;;;4226177;28;20051;-57
2023/06/19 00:39:55;;;;;;;6.45;5.95;;;26.10;59.20;;;;;;4225791;28;20051;-57
2023/06/19 00:42:36;;;;;;;7.10;6.18;;;26.10;59.10;;;;;;4209268;28;20070;-57
2023/06/19 00:45:18;;;;;;;6.38;5.75;;;26.10;59.00;;;;;;4209172;28;20051;-57
2023/06/19 00:48:01;;;;;;;6.53;6.03;;;26.10;58.90;;;;;;4209082;28;20055;-57
2023/06/19 00:50:42;;;;;;;6.38;5.88;;;26.10;58.70;;;;;;4208737;28;20169;-57
2023/06/19 00:53:24;;;;;;;6.47;5.95;;;26.10;58.70;;;;;;4208145;28;20058;-57
2023/06/19 00:56:06;;;;;;;6.60;6.10;;;26.10;58.70;;;;;;4208182;28;20067;-57
2023/06/19 00:58:47;;;;;;;7.07;6.10;;;26.10;58.70;;;;;;4225017;27;20046;-58
2023/06/19 01:01:29;;;;;;;6.32;5.93;;;26.10;58.70;;;;;;4224753;28;20054;-57
2023/06/19 01:04:11;;;;;;;6.78;6.10;;;26.10;58.70;;;;;;4225737;28;20046;-57
2023/06/19 01:06:57;;;;;;;6.60;6.10;;;26.00;58.60;;;;;;4224435;28;20057;-58
2023/06/19 01:09:47;;;;;;;6.68;6.07;;;26.00;58.50;;;;;;4224516;28;20539;-57
2023/06/19 01:12:34;;;;;;;7.07;6.45;;;26.00;58.30;;;;;;4225835;28;20228;-57
2023/06/19 01:15:15;;;;;;;5.82;5.32;;;26.10;58.30;;;;;;4207646;28;20063;-57
2023/06/19 01:18:00;;;;;;;6.35;5.82;;;26.00;58.20;;;;;;4209040;28;20055;-57
2023/06/19 01:20:41;;;;;;;7.22;6.53;;;26.00;58.80;;;;;;4223835;28;20058;-57
2023/06/19 01:23:24;;;;;;;7.05;6.45;;;26.00;58.10;;;;;;4222758;28;20053;-57
2023/06/19 01:26:06;;;;;;;9.38;6.53;;;26.00;58.10;;;;;;4208273;28;20050;-58
2023/06/19 01:28:48;;;;;;;8.07;6.10;;;26.00;58.30;;;;;;4216652;28;20067;-57
2023/06/19 01:31:34;;;;;;;6.38;5.90;;;26.00;58.30;;;;;;4212442;28;20551;-59
2023/06/19 01:34:17;;;;;;;6.55;6.05;;;26.00;58.20;;;;;;4190665;28;20060;-57
2023/06/19 01:36:59;;;;;;;7.63;6.68;;;26.00;58.20;;;;;;4210569;28;20698;-57
2023/06/19 01:39:43;;;;;;;6.90;6.20;;;25.90;58.20;;;;;;4219536;28;20070;-57
2023/06/19 01:42:25;;;;;;;6.38;5.88;;;25.90;58.20;;;;;;4220462;27;20061;-57
2023/06/19 01:45:07;;;;;;;7.05;6.35;;;25.90;58.30;;;;;;4241193;27;20068;-58
2023/06/19 01:47:49;;;;;;;6.78;6.07;;;25.90;58.30;;;;;;4235864;28;20141;-58
2023/06/19 01:50:30;;;;;;;7.20;6.50;;;25.90;58.30;;;;;;4224971;28;20621;-57
2023/06/19 01:53:11;;;;;;;6.85;6.35;;;25.90;58.30;;;;;;4223961;28;20409;-58
2023/06/19 01:55:53;;;;;;;6.93;6.22;;;25.90;58.20;;;;;;4208224;28;20138;-58
2023/06/19 01:58:34;;;;;;;6.60;5.95;;;25.90;58.20;;;;;;4190417;28;20182;-57
2023/06/19 02:01:15;;;;;;;6.88;6.35;;;25.90;59.00;;;;;;4205746;28;20120;-56
2023/06/19 02:03:56;;;;;;;;;;;25.90;58.20;;;;;;4217051;28;20047;-57
2023/06/19 02:06:37;;;;;;;7.00;6.43;;;25.90;58.10;;;;;;4224782;28;19993;-58
2023/06/19 02:09:19;;;;;;;6.85;6.25;;;25.90;58.10;;;;;;4223569;28;20050;-55
2023/06/19 02:12:01;;;;;;;;;;;25.90;57.90;;;;;;4224134;28;20051;-56
2023/06/19 02:14:42;;;;;;;6.78;6.18;;;25.90;58.10;;;;;;4206980;28;19996;-55
2023/06/19 02:17:25;;;;;;;7.10;6.50;;;25.90;58.20;;;;;;4208189;28;20406;-55
2023/06/19 02:20:08;;;;;;;;;;;25.80;58.20;;;;;;4198727;28;20132;-55
2023/06/19 02:22:49;;;;;;;9.88;6.18;;;25.80;58.20;;;;;;4240680;27;19968;-55
2023/06/19 02:25:30;;;;;;;6.90;5.80;;;25.80;58.20;;;;;;4209984;28;20482;-56
2023/06/19 02:28:13;;;;;;;;;;;25.80;58.10;;;;;;4210277;28;20528;-57
2023/06/19 02:30:55;;;;;;;7.53;6.63;;;25.80;58.10;;;;;;4226235;28;20058;-57
2023/06/19 02:33:36;;;;;;;7.00;5.63;;;25.80;58.90;;;;;;4228070;27;20113;-56
2023/06/19 02:36:19;;;;;;;7.28;6.25;;;25.80;57.80;;;;;;4210995;28;20063;-58
2023/06/19 02:39:00;;;;;;;6.43;5.82;;;25.80;57.60;;;;;;4226626;28;20501;-58
2023/06/19 02:41:43;;;;;;;6.22;5.72;;;25.80;57.60;;;;;;4241850;27;20077;-57
2023/06/19 02:44:25;;;;;;;6.13;5.65;;;25.80;57.50;;;;;;4209441;28;20055;-57
2023/06/19 02:47:06;;;;;;;6.78;6.05;;;25.80;57.40;;;;;;4209895;28;20497;-57
2023/06/19 02:49:47;;;;;;;6.20;5.68;;;25.80;57.30;;;;;;4211326;28;20063;-57
2023/06/19 02:52:28;;;;;;;;;;;25.80;57.30;;;;;;4226742;27;20046;-57
2023/06/19 02:55:10;;;;;;;6.75;6.25;;;25.70;57.30;;;;;;4227451;27;20012;-57
2023/06/19 02:57:51;;;;;;;;;;;25.80;57.60;;;;;;4211185;28;20500;-57
2023/06/19 03:00:33;;;;;;;6.35;5.85;;;25.80;57.50;;;;;;4232814;27;19926;-57
2023/06/19 03:03:14;;;;;;;6.53;5.95;;;25.80;57.50;;;;;;4243349;27;20103;-56
2023/06/19 03:05:54;;;;;;;7.45;6.82;;;25.70;57.00;;;;;;4244194;27;20054;-56
2023/06/19 03:08:35;;;;;;;6.55;6.05;;;25.70;56.90;;;;;;4244221;27;20049;-57
2023/06/19 03:11:17;;;;;;;6.55;6.05;;;25.70;56.80;;;;;;4242783;27;20050;-56
2023/06/19 03:13:57;;;;;;;6.78;5.50;;;25.70;56.60;;;;;;4234850;27;20401;-57
2023/06/19 03:16:40;;;;;;;6.60;5.95;;;25.70;56.50;;;;;;4226149;28;20069;-57
2023/06/19 03:19:21;;;;;;;6.43;5.82;;;25.70;56.20;;;;;;4228048;27;20157;-57
2023/06/19 03:22:03;;;;;;;;;;;25.70;56.30;;;;;;4209391;28;20055;-56
2023/06/19 03:24:44;;;;;;;7.60;6.28;;;25.70;56.50;;;;;;4208920;28;19978;-55
2023/06/19 03:27:30;;;;;;;7.47;6.30;;;25.70;56.80;;;;;;4211158;27;20710;-57
2023/06/19 03:30:12;;;;;;;8.27;6.30;;;25.60;56.20;;;;;;4239557;27;20054;-57
2023/06/19 03:32:57;;;;;;;7.07;6.45;;;25.70;56.20;;;;;;4225424;27;20114;-56
2023/06/19 03:36:10;;;;;;;7.57;5.95;;;25.70;56.00;;;;;;4226414;27;20059;-57
2023/06/19 03:39:00;;;;;;;7.25;6.55;;;25.70;56.20;;;;;;4231128;27;20120;-57
2023/06/19 03:41:43;;;;;;;7.15;6.55;;;25.70;56.00;;;;;;4225370;27;20055;-57
2023/06/19 03:44:24;;;;;;;7.40;6.65;;;25.70;55.90;;;;;;4225524;28;20050;-57
2023/06/19 03:47:06;;;;;;;7.10;6.45;;;25.70;55.80;;;;;;4228979;27;20123;-57
2023/06/19 03:49:49;;;;;;;7.00;6.40;;;25.70;55.80;;;;;;4224804;28;20414;-57
2023/06/19 03:52:30;;;;;;;7.07;6.10;;;25.70;55.80;;;;;;4224750;28;20789;-57
2023/06/19 03:55:11;;;;;;;6.63;6.03;;;25.60;55.80;;;;;;4225226;27;20387;-57
2023/06/19 03:57:52;;;;;;;;;;;25.60;55.80;;;;;;4222740;28;20058;-57
2023/06/19 04:00:34;;;;;;;8.05;6.80;;;25.70;56.10;;;;;;4229464;27;19931;-57
2023/06/19 04:03:15;;;;;;;6.72;6.15;;;25.70;56.30;;;;;;4242311;27;20519;-57
2023/06/19 04:05:57;;;;;;;;;;;25.70;56.20;;;;;;4239971;27;20413;-57
2023/06/19 04:08:38;;;;;;;6.65;6.15;;;25.70;56.30;;;;;;4209551;28;19927;-58
2023/06/19 04:11:20;;;;;;;6.57;6.07;;;25.60;56.40;;;;;;4208334;28;20046;-57
2023/06/19 04:14:01;;;;;;;7.80;6.75;;;25.60;56.20;;;;;;4223220;28;20124;-57
2023/06/19 04:16:43;;;;;;;7.63;6.45;;;25.60;56.20;;;;;;4230331;27;20220;-57
2023/06/19 04:19:23;;;;;;;6.50;6.00;;;25.60;56.20;;;;;;4226287;27;20072;-57
2023/06/19 04:22:06;;;;;;;;;;;25.60;56.40;;;;;;4226608;27;20615;-58
2023/06/19 04:24:47;;;;;;;6.28;5.80;;;25.60;56.30;;;;;;4208329;28;20670;-57
2023/06/19 04:27:28;;;;;;;;;;;25.60;56.50;;;;;;4222872;28;20405;-57
2023/06/19 04:30:12;;;;;;;5.95;5.40;;;25.60;56.70;;;;;;4225848;28;20010;-55
2023/06/19 04:32:53;;;;;;;6.22;5.63;;;25.60;56.70;;;;;;4209385;28;20063;-58
2023/06/19 04:35:39;;;;;;;5.90;5.40;;;25.60;56.60;;;;;;4195693;28;20102;-54
2023/06/19 04:38:23;;;;;;;7.93;6.10;;;25.60;56.70;;;;;;4201485;28;20128;-58
2023/06/19 04:41:04;;;;;;;5.88;5.47;;;25.60;56.90;;;;;;4210656;28;20132;-57
2023/06/19 04:43:45;;;;;;;5.78;4.70;;;25.60;56.90;;;;;;4220649;27;20097;-58
2023/06/19 04:46:26;;;;;;;4.85;4.45;;;25.60;57.00;;;;;;4218887;27;20051;-58
2023/06/19 04:49:08;;;;;;;4.28;4.07;;;25.60;57.80;;;;;;4224955;28;20185;-58
2023/06/19 04:51:49;;;;;;;4.50;4.10;;;25.60;57.20;;;;;;4208994;28;20055;-58
2023/06/19 04:54:32;;;;;;;5.00;4.03;;;25.60;57.30;;;;;;4212023;28;20514;-58
2023/06/19 04:57:13;;;;;;;4.80;4.40;;;25.60;57.40;;;;;;4208685;28;20104;-58
2023/06/19 04:59:54;;;;;;;5.47;4.18;;;25.70;57.60;;;;;;4207334;28;20201;-58
2023/06/19 05:02:35;;;;;;;3.45;3.25;;;25.60;57.50;;;;;;4224476;27;20182;-58
2023/06/19 05:05:16;;;;;;;5.80;4.07;;;25.60;57.80;;;;;;4225704;28;20054;-58
2023/06/19 05:07:57;;;;;;;4.32;3.92;;;25.70;57.90;;;;;;4224180;28;20077;-58
2023/06/19 05:10:39;;;;;;;3.83;3.30;;;25.60;57.90;;;;;;4225887;27;20055;-58
2023/06/19 05:13:20;;;;;;;4.07;3.78;;;25.70;58.10;;;;;;4225192;28;20062;-58
2023/06/19 05:16:01;;;;;;;4.15;3.85;;;25.70;58.20;;;;;;4225536;28;20090;-58
2023/06/19 05:18:42;;;;;;;3.83;3.50;;;25.70;58.20;;;;;;4225634;28;20107;-58
2023/06/19 05:21:23;;;;;;;;;;;25.70;58.40;;;;;;4224782;28;20050;-58
2023/06/19 05:24:04;;;;;;;5.55;4.18;;;25.70;58.40;;;;;;4209094;28;19930;-58
2023/06/19 05:26:47;;;;;;;6.55;4.18;;;25.80;58.50;;;;;;4192232;28;20094;-58
2023/06/19 05:29:27;;;;;;;5.43;3.90;;;25.80;58.50;;;;;;4191834;28;20055;-58
2023/06/19 05:32:09;;;;;;;4.45;4.05;;;25.80;58.50;;;;;;4207369;28;20058;-57
2023/06/19 05:34:50;;;;;;;9.00;4.72;;;25.90;58.40;;;;;;4224927;28;20046;-57
2023/06/19 05:37:31;;;;;;;;;;;25.90;58.40;;;;;;4208913;28;20141;-58
2023/06/19 05:40:12;;;;;;;4.13;3.83;;;25.90;58.20;;;;;;4224282;28;20073;-58
2023/06/19 05:42:55;;;;;;;;;;;26.00;58.40;;;;;;4206383;28;20491;-58
2023/06/19 05:45:36;;;;;;;3.70;3.40;;;26.00;58.40;;;;;;4208976;28;19927;-58
2023/06/19 05:48:17;;;;;;;;;;;26.10;58.40;;;;;;4213539;28;20366;-58
2023/06/19 05:50:58;;;;;;;4.05;3.75;;;26.10;58.20;;;;;;4208846;28;20282;-53
2023/06/19 05:53:40;;;;;;;4.10;3.80;;;26.10;58.40;;;;;;4230157;27;20054;-57
2023/06/19 05:56:21;;;;;;;4.00;3.65;;;26.20;58.80;;;;;;4239788;27;20058;-58
2023/06/19 05:59:04;;;;;;;4.53;4.22;;;26.10;58.90;;;;;;4241662;27;20054;-58
2023/06/19 06:01:45;;;;;;;5.95;4.07;;;26.10;59.20;;;;;;4244183;27;20066;-58
2023/06/19 06:04:26;;;;;;;4.40;4.10;;;26.10;59.30;;;;;;4217491;28;20088;-58
2023/06/19 06:07:07;;;;;;;5.38;4.88;;;26.10;59.40;;;;;;4211734;28;20038;-58
2023/06/19 06:09:48;;;;;;;4.68;4.35;;;26.10;59.50;;;;;;4231183;27;20058;-58
2023/06/19 06:12:29;;;;;;;5.57;5.07;;;26.10;59.50;;;;;;4230625;27;20046;-57
2023/06/19 06:15:11;;;;;;;6.32;5.90;;;26.20;59.60;;;;;;4239533;27;20128;-57
2023/06/19 06:17:52;;;;;;;6.28;5.63;;;26.20;59.70;;;;;;4228444;27;20066;-58
2023/06/19 06:20:33;;;;;;;5.47;5.07;;;26.20;60.60;;;;;;4227626;27;20808;-58
2023/06/19 06:23:15;;;;;;;6.45;5.95;;;26.20;59.80;;;;;;4228413;27;20055;-58
2023/06/19 06:26:01;;;;;;;10.07;6.47;;;26.20;60.00;;;;;;4235532;27;20065;-58
2023/06/19 06:28:42;;;;;;;6.03;5.53;;;26.10;60.00;;;;;;4228650;27;20050;-58
2023/06/19 06:31:25;;;;;;;5.70;5.30;;;26.10;60.30;;;;;;4221998;27;20054;-58
2023/06/19 06:34:06;;;;;;;6.47;5.82;;;26.10;60.60;;;;;;4237879;27;20050;-58
2023/06/19 06:36:46;;;;;;;7.47;6.85;;;26.10;60.90;;;;;;4245056;27;20185;-58
2023/06/19 06:39:40;;;;;;;6.63;5.97;;;26.00;61.10;;;;;;4244679;27;20054;-58
2023/06/19 06:42:21;;;;;;;5.55;5.07;;;26.00;61.10;;;;;;4225964;27;20473;-58
2023/06/19 06:45:02;;;;;;;5.35;4.85;;;25.90;61.50;;;;;;4224638;27;20135;-58
2023/06/19 06:47:45;;;;;;;6.03;4.78;;;25.90;61.90;;;;;;4229771;27;20050;-58
2023/06/19 06:50:25;;;;;;;5.72;5.22;;;25.90;62.30;;;;;;4224205;27;20050;-58
2023/06/19 06:53:08;;;;;;;4.13;3.83;;;25.90;63.40;;;;;;4232176;27;20047;-58
2023/06/19 06:55:49;;;;;;;4.30;3.90;;;25.90;62.70;;;;;;4231997;27;20425;-58
2023/06/19 06:58:30;;;;;;;3.90;3.70;;;25.90;63.00;;;;;;4236464;27;20054;-58
2023/06/19 07:01:11;;;;;;;3.47;3.28;;;25.90;63.30;;;;;;4240940;27;20095;-58
2023/06/19 07:03:54;;;;;;;3.95;3.40;;;25.90;63.30;;;;;;4239827;27;20068;-57
2023/06/19 07:06:35;;;;;;;3.65;3.35;;;25.90;63.40;;;;;;4235712;27;20057;-58
2023/06/19 07:09:16;;;;;;;3.60;3.38;;;25.90;63.60;;;;;;4228036;27;20185;-58
2023/06/19 07:11:57;;;;;;;;;;;25.90;63.80;;;;;;4232186;27;20103;-57
2023/06/19 07:14:38;;;;;;;3.83;3.53;;;25.90;64.00;;;;;;4224064;27;19926;-58
2023/06/19 07:17:19;;;;;;;2.95;2.67;;;25.90;64.30;;;;;;4240187;27;20475;-57
2023/06/19 07:20:03;;;;;;;3.67;2.83;;;25.90;64.50;;;;;;4236320;27;20102;-58
2023/06/19 07:22:44;;;;;;;3.53;3.22;;;25.90;64.70;;;;;;4224331;27;20181;-58
2023/06/19 07:25:26;;;;;;;3.90;3.38;;;25.90;65.00;;;;;;4223889;27;20116;-58
2023/06/19 07:28:08;;;;;;;3.40;3.20;;;25.80;65.20;;;;;;4222730;27;20070;-58
2023/06/19 07:30:49;;;;;;;;;;;25.80;65.80;;;;;;4225409;27;20128;-58
2023/06/19 07:33:30;;;;;;;5.90;4.40;;;25.80;66.00;;;;;;4234821;27;19934;-58
2023/06/19 07:36:13;;;;;;;12.23;5.30;;;25.80;66.20;;;;;;4224166;27;20972;-58
2023/06/19 07:38:56;;;;;;;14.35;7.60;;;25.70;66.40;;;;;;4224965;27;20051;-58
2023/06/19 07:41:37;;;;;;;25.42;7.75;;;25.70;66.70;;;;;;4231764;27;20231;-57
2023/06/19 07:44:20;;;;;;;74.13;12.43;;;25.70;66.90;;;;;;4241219;27;20910;-57
2023/06/19 07:47:01;;;;;;;10.38;8.45;;;25.70;67.10;;;;;;4230109;27;20066;-58
2023/06/19 07:49:42;;;;;;;;;;;25.60;67.40;;;;;;4222088;28;20120;-58
2023/06/19 07:52:25;;;;;;;10.95;9.82;;;25.60;67.50;;;;;;4224993;27;20057;-57
2023/06/19 07:55:06;;;;;;;9.68;8.70;;;25.60;67.80;;;;;;4224716;27;20057;-57
2023/06/19 07:57:48;;;;;;;12.30;10.20;;;25.50;68.20;;;;;;4227525;27;20058;-57
2023/06/19 08:00:29;;;;;;;9.82;8.90;;;25.50;68.50;;;;;;4224067;27;20070;-57
2023/06/19 08:03:10;;;;;;;10.65;9.63;;;25.50;68.70;;;;;;4224342;27;20058;-57
2023/06/19 08:05:51;;;;;;;10.48;9.40;;;25.40;68.80;;;;;;4229533;27;20064;-57
2023/06/19 08:08:33;;;;;;;10.88;9.32;;;25.40;68.90;;;;;;4210951;28;20367;-58
2023/06/19 08:11:14;;;;;;;12.18;10.20;;;25.40;68.90;;;;;;4224891;27;20076;-59
2023/06/19 08:13:56;;;;;;;10.65;8.75;;;25.40;69.00;;;;;;4229335;27;20127;-57
2023/06/19 08:16:36;;;;;;;10.10;8.98;;;25.40;69.10;;;;;;4225029;27;20059;-57
2023/06/19 08:19:17;;;;;;;9.32;8.32;;;25.30;69.00;;;;;;4223727;27;20687;-57
2023/06/19 08:21:58;;;;;;;10.25;9.15;;;25.40;69.10;;;;;;4234050;27;20709;-57
2023/06/19 08:24:41;;;;;;;11.27;9.88;;;25.30;69.00;;;;;;4224265;28;20055;-57
2023/06/19 08:27:22;;;;;;;10.77;8.88;;;25.30;70.00;;;;;;4222414;27;20485;-57
2023/06/19 08:30:03;;;;;;;;;;;25.30;70.00;;;;;;4226644;27;20378;-57
2023/06/19 08:32:48;;;;;;;9.80;8.82;;;25.30;69.10;;;;;;4235039;27;19942;-57
2023/06/19 08:35:29;;;;;;;10.10;9.10;;;25.20;69.30;;;;;;4223412;27;20490;-59
2023/06/19 08:38:10;;;;;;;9.20;8.05;;;25.20;69.50;;;;;;4223416;27;20513;-59
2023/06/19 08:40:52;;;;;;;9.65;7.85;;;25.20;69.60;;;;;;4223535;27;20054;-58
2023/06/19 08:43:33;;;;;;;7.57;6.95;;;25.20;69.80;;;;;;4222707;28;20123;-58
2023/06/19 08:46:17;;;;;;;8.07;7.35;;;25.20;69.90;;;;;;4223727;27;20070;-59
2023/06/19 08:49:00;;;;;;;7.25;6.07;;;25.20;70.00;;;;;;4209997;28;20062;-59
2023/06/19 08:51:41;;;;;;;7.20;6.30;;;25.20;70.00;;;;;;4236712;27;20058;-59
2023/06/19 08:54:22;;;;;;;;;;;25.10;69.90;;;;;;4223996;28;20095;-59
2023/06/19 08:57:06;;;;;;;5.97;5.38;;;25.10;69.90;;;;;;4222469;28;19931;-59
2023/06/19 08:59:50;;;;;;;5.63;5.05;;;25.10;70.00;;;;;;4223405;28;20073;-66
2023/06/19 09:02:39;;;;;;;7.65;5.82;;;25.00;69.80;;;;;;4222950;27;20501;-65
2023/06/19 09:05:20;;;;;;;6.30;5.70;;;25.10;70.60;;;;;;4222839;28;20099;-65
2023/06/19 09:08:02;;;;;;;5.40;4.90;;;25.10;69.60;;;;;;4223683;27;20653;-65
2023/06/19 09:10:58;;;;;;;5.90;5.35;;;25.10;70.40;;;;;;4222255;27;20062;-65
2023/06/19 09:13:41;;;;;;;;;;;25.10;70.10;;;;;;4222852;27;20096;-61
2023/06/19 09:16:24;;;;;;;6.45;4.63;;;25.10;69.00;;;;;;4236331;27;19930;-66
2023/06/19 09:19:05;;;;;;;4.88;4.47;;;25.00;68.90;;;;;;4239214;27;20623;-65
2023/06/19 09:21:45;;;;;;;5.28;4.68;;;25.00;68.60;;;;;;4225371;27;20563;-59
2023/06/19 09:24:33;;;;;;;;;;;25.00;68.40;;;;;;4190380;28;20178;-61
2023/06/19 09:27:18;;;;;;;4.57;4.28;;;25.00;68.20;;;;;;4227935;27;19975;-60
2023/06/19 09:30:02;;;;;;;4.28;3.95;;;25.00;68.30;;;;;;4228040;27;20053;-60
2023/06/19 09:32:44;;;;;;;3.92;3.53;;;25.00;68.10;;;;;;4234712;27;20051;-60
2023/06/19 09:35:25;;;;;;;;;;;25.00;68.00;;;;;;4228549;27;20394;-61
2023/06/19 09:38:11;;;;;;;4.07;3.60;;;24.90;68.00;;;;;;4226510;27;20019;-60
2023/06/19 09:40:53;;;;;;;4.80;3.70;;;24.90;67.80;;;;;;4235133;27;20496;-60
2023/06/19 09:43:37;;;;;;;5.25;4.15;;;24.90;67.70;;;;;;4227574;27;20065;-60
2023/06/19 09:46:21;;;;;;;5.00;4.55;;;24.90;67.50;;;;;;4235797;27;20092;-61
2023/06/19 09:49:05;;;;;;;4.03;3.70;;;24.90;67.50;;;;;;4229371;27;20057;-60
2023/06/19 09:51:46;;;;;;;4.63;4.32;;;24.90;67.50;;;;;;4228104;27;20047;-61
2023/06/19 09:54:27;;;;;;;4.70;4.40;;;24.90;67.50;;;;;;4228489;27;20054;-60
2023/06/19 09:57:09;;;;;;;4.85;4.38;;;24.90;67.60;;;;;;4227217;27;20058;-61
2023/06/19 09:59:53;;;;;;;5.28;4.80;;;24.90;67.50;;;;;;4228239;27;20172;-61
2023/06/19 10:02:38;;;;;;;5.55;4.65;;;25.00;68.40;;;;;;4233174;27;20647;-61
2023/06/19 10:05:30;;;;;;;7.50;5.20;;;25.00;67.40;;;;;;4230274;27;20119;-60
2023/06/19 10:08:12;;;;;;;5.97;5.25;;;25.00;67.20;;;;;;4227952;27;20054;-60
2023/06/19 10:10:56;;;;;;;5.72;5.00;;;25.00;66.90;;;;;;4226846;27;20055;-60
2023/06/19 10:13:39;;;;;;;4.75;4.35;;;25.10;66.50;;;;;;4227109;27;20483;-60
2023/06/19 10:16:24;;;;;;;6.82;3.75;;;25.10;66.00;;;;;;4238384;27;20099;-60
2023/06/19 10:19:15;;;;;;;4.57;3.67;;;25.10;65.60;;;;;;4233727;27;20054;-60
2023/06/19 10:21:56;;;;;;;4.22;3.92;;;25.10;65.70;;;;;;4227201;27;20074;-60
2023/06/19 10:24:38;;;;;;;8.45;4.47;;;25.20;64.50;;;;;;4227995;27;20062;-61
2023/06/19 10:27:23;;;;;;;5.35;4.82;;;25.20;63.90;;;;;;4227891;27;20192;-60
2023/06/19 10:30:05;;;;;;;5.38;4.95;;;25.30;64.50;;;;;;4226957;27;20180;-59
2023/06/19 10:32:49;;;;;;;7.97;4.80;;;25.30;63.10;;;;;;4228450;27;20232;-60
2023/06/19 10:35:39;;;;;;;5.97;5.43;;;25.30;63.10;;;;;;4227183;27;20521;-60
2023/06/19 10:38:20;;;;;;;5.97;5.38;;;25.30;62.80;;;;;;4219819;27;20055;-60
2023/06/19 10:41:01;;;;;;;5.57;4.95;;;25.40;63.00;;;;;;4224333;27;20055;-60
2023/06/19 10:43:42;;;;;;;5.07;4.57;;;25.40;62.70;;;;;;4224642;27;20074;-60
2023/06/19 10:46:24;;;;;;;6.18;5.38;;;25.40;62.40;;;;;;4225859;27;20136;-60
2023/06/19 10:49:10;;;;;;;7.65;5.30;;;25.50;62.10;;;;;;4224779;27;20050;-60
2023/06/19 10:51:57;;;;;;;7.15;5.35;;;25.50;61.70;;;;;;4212857;28;20055;-60
2023/06/19 10:54:38;;;;;;;5.93;5.43;;;25.50;61.70;;;;;;4226954;27;20513;-60
2023/06/19 10:57:19;;;;;;;6.55;5.75;;;25.50;61.70;;;;;;4230010;27;20074;-60
2023/06/19 11:00:00;;;;;;;;;;;25.50;61.70;;;;;;4224643;27;20055;-60
2023/06/19 11:02:43;;;;;;;6.57;5.97;;;25.50;61.70;;;;;;4225707;27;19931;-59
2023/06/19 11:05:26;;;;;;;7.20;6.55;;;25.50;61.70;;;;;;4236177;27;20081;-60
2023/06/19 11:08:08;;;;;;;9.13;7.22;;;25.40;61.60;;;;;;4227129;27;20489;-60
2023/06/19 11:10:49;;;;;;;7.10;6.50;;;25.50;61.50;;;;;;4225345;27;20093;-60
2023/06/19 11:13:30;;;;;;;7.20;6.60;;;25.40;61.60;;;;;;4237549;27;20287;-60
2023/06/19 11:16:11;;;;;;;8.60;7.32;;;25.50;61.80;;;;;;4225405;27;20058;-60
2023/06/19 11:18:57;;;;;;;8.23;6.18;;;25.40;61.70;;;;;;4224800;27;20051;-60
2023/06/19 11:21:39;;;;;;;7.03;6.47;;;25.50;61.70;;;;;;4233874;27;20053;-60
2023/06/19 11:24:23;;;;;;;9.10;7.18;;;25.40;61.60;;;;;;4223321;27;20133;-60
2023/06/19 11:27:05;;;;;;;7.90;7.10;;;25.50;61.60;;;;;;4223396;27;20094;-60
2023/06/19 11:29:46;;;;;;;7.75;6.00;;;25.50;61.60;;;;;;4224216;27;20054;-57
2023/06/19 11:32:33;;;;;;;8.50;7.18;;;25.50;61.80;;;;;;4239679;27;20388;-61
2023/06/19 11:35:16;;;;;;;8.60;7.22;;;25.60;61.80;;;;;;4220443;27;20058;-61
2023/06/19 11:37:58;;;;;;;9.02;8.10;;;25.60;61.70;;;;;;4222129;27;20059;-62
2023/06/19 11:40:45;;;;;;;8.50;7.70;;;25.60;61.60;;;;;;4223024;27;20062;-63
2023/06/19 11:43:27;;;;;;;11.98;7.72;;;25.60;61.50;;;;;;4222508;27;20124;-61
2023/06/19 11:46:09;;;;;;;10.65;7.25;;;25.60;61.30;;;;;;4217705;28;20047;-62
2023/06/19 11:48:49;;;;;;;;;;;25.70;61.40;;;;;;4207271;28;20402;-62
2023/06/19 11:51:46;;;;;;;9.02;7.18;;;25.70;61.40;;;;;;4222389;27;19926;-62
2023/06/19 11:54:28;;;;;;;7.05;6.50;;;25.70;61.40;;;;;;4225719;27;20189;-62
2023/06/19 11:57:12;;;;;;;7.03;6.43;;;25.80;61.50;;;;;;4224429;27;20066;-62
2023/06/19 11:59:54;;;;;;;6.93;6.35;;;25.80;61.40;;;;;;4224754;27;20047;-62
2023/06/19 12:02:34;;;;;;;;;;;25.80;61.10;;;;;;4224562;27;20059;-62
2023/06/19 12:05:15;;;;;;;7.40;6.72;;;25.90;61.00;;;;;;4240579;27;20265;-62
2023/06/19 12:07:57;;;;;;;7.45;6.70;;;25.90;61.60;;;;;;4223561;27;20066;-62
2023/06/19 12:10:39;;;;;;;6.93;5.97;;;25.90;60.40;;;;;;4230546;27;20128;-62
2023/06/19 12:13:21;;;;;;;7.05;6.03;;;25.90;60.20;;;;;;4233739;27;20103;-62
2023/06/19 12:16:03;;;;;;;7.13;6.38;;;25.90;60.10;;;;;;4233192;27;20069;-62
2023/06/19 12:18:43;;;;;;;6.93;6.20;;;25.90;59.80;;;;;;4227705;27;20104;-62
2023/06/19 12:21:24;;;;;;;7.70;7.00;;;25.90;59.60;;;;;;4223249;27;20128;-61
2023/06/19 12:24:17;;;;;;;8.48;7.40;;;26.00;59.60;;;;;;4225544;27;20054;-61
2023/06/19 12:26:58;;;;;;;9.75;8.73;;;26.00;59.50;;;;;;4224337;27;20084;-62
2023/06/19 12:29:41;;;;;;;;;;;25.90;59.40;;;;;;4221503;27;20635;-56
2023/06/19 12:32:22;;;;;;;10.00;7.90;;;26.00;59.60;;;;;;4232377;27;19930;-57
2023/06/19 12:35:03;;;;;;;12.65;8.48;;;26.00;59.50;;;;;;4224895;27;20129;-57
2023/06/19 12:37:46;;;;;;;10.63;7.90;;;26.00;59.30;;;;;;4222708;27;20721;-56
2023/06/19 12:40:27;;;;;;;9.25;8.35;;;26.00;59.20;;;;;;4222654;27;20219;-57
2023/06/19 12:43:09;;;;;;;8.75;7.97;;;26.00;59.10;;;;;;4222595;27;20071;-56
2023/06/19 12:45:51;;;;;;;9.48;7.93;;;26.00;59.00;;;;;;4221144;27;20140;-55
2023/06/19 12:48:33;;;;;;;9.20;8.27;;;26.00;59.80;;;;;;4222657;27;20051;-57
2023/06/19 12:51:14;;;;;;;11.13;9.73;;;26.00;59.10;;;;;;4226237;27;20054;-56
2023/06/19 12:53:55;;;;;;;;;;;26.00;59.40;;;;;;4224727;27;20055;-56
2023/06/19 12:56:36;;;;;;;12.23;10.88;;;26.00;59.40;;;;;;4220201;27;20449;-57
2023/06/19 12:59:18;;;;;;;15.02;11.43;;;26.00;59.30;;;;;;4221131;28;20189;-57
2023/06/19 13:02:00;;;;;;;;;;;26.00;59.10;;;;;;4223257;27;20058;-56
2023/06/19 13:04:41;;;;;;;10.77;9.20;;;26.00;59.20;;;;;;4218221;27;19931;-57
2023/06/19 13:07:23;;;;;;;9.68;8.73;;;26.10;59.20;;;;;;4222817;27;20128;-57
2023/06/19 13:10:05;;;;;;;10.93;9.48;;;26.10;58.90;;;;;;4222584;27;20120;-57
2023/06/19 13:12:47;;;;;;;9.63;8.63;;;26.10;58.70;;;;;;4227012;27;20151;-57
2023/06/19 13:15:28;;;;;;;12.05;9.20;;;26.10;58.70;;;;;;4230738;27;20090;-62
2023/06/19 13:18:11;;;;;;;11.38;8.65;;;26.10;58.60;;;;;;4235246;27;20058;-62
2023/06/19 13:20:52;;;;;;;9.30;8.40;;;26.10;58.50;;;;;;4228400;27;20140;-63
2023/06/19 13:23:33;;;;;;;;;;;26.20;58.50;;;;;;4234470;27;20082;-62
2023/06/19 13:26:14;;;;;;;10.20;8.98;;;26.20;58.40;;;;;;4237577;27;19941;-62
2023/06/19 13:28:58;;;;;;;10.13;9.13;;;26.10;58.40;;;;;;4223199;27;20058;-62
2023/06/19 13:31:39;;;;;;;10.02;9.13;;;26.20;59.00;;;;;;4223534;27;20070;-62
2023/06/19 13:34:22;;;;;;;9.43;8.10;;;26.20;58.30;;;;;;4222928;28;20453;-62
2023/06/19 13:37:04;;;;;;;7.90;7.30;;;26.20;58.30;;;;;;4236214;27;20111;-62
2023/06/19 13:39:45;;;;;;;9.30;7.47;;;26.20;58.20;;;;;;4209258;27;20058;-62
2023/06/19 13:42:28;;;;;;;8.02;7.28;;;26.30;58.20;;;;;;4213515;28;20085;-62
2023/06/19 13:45:09;;;;;;;7.53;6.80;;;26.30;58.70;;;;;;4229573;27;20074;-62
2023/06/19 13:47:50;;;;;;;7.65;6.93;;;26.30;58.10;;;;;;4220446;27;20066;-61
2023/06/19 13:50:33;;;;;;;7.47;6.53;;;26.30;57.90;;;;;;4212804;28;20054;-62
2023/06/19 13:53:14;;;;;;;8.88;7.38;;;26.30;57.90;;;;;;4207051;28;20050;-62
2023/06/19 13:55:55;;;;;;;7.18;6.47;;;26.30;57.80;;;;;;4223849;27;20047;-57
2023/06/19 13:58:36;;;;;;;7.68;6.90;;;26.30;57.60;;;;;;4229366;27;20053;-56
2023/06/19 14:01:18;;;;;;;8.13;6.00;;;26.30;57.50;;;;;;4226689;27;20095;-62
2023/06/19 14:03:59;;;;;;;6.65;6.03;;;26.40;57.50;;;;;;4220653;27;20144;-62
2023/06/19 14:06:42;;;;;;;6.70;6.05;;;26.40;57.30;;;;;;4207296;28;20059;-62
2023/06/19 14:09:23;;;;;;;8.02;5.55;;;26.40;57.20;;;;;;4208446;28;20059;-61
2023/06/19 14:12:05;;;;;;;6.60;5.97;;;26.40;57.10;;;;;;4208457;28;20448;-62